Time;durP1;ratioP1;P1;durP2;ratioP2;P2;SDS_P1;SDS_P2;PMS_P1;PMS_P2;Temp;Humidity;BMP_temperature;BMP_pressure;BME280_temperature;BME280_humidity;BME280_pressure;Samples;Min_cycle;Max_cycle;Signal;HPM_P1;HPM_P2
2023/09/10 00:02:43;;;;;;;0.10;0.10;;;;;;;19.28;100.00;99230.44;5113567;28;20255;-55
2023/09/10 00:05:33;;;;;;;0.20;0.20;;;;;;;19.32;100.00;99223.78;5111852;28;20268;-56
2023/09/10 00:08:19;;;;;;;0.10;0.10;;;;;;;19.44;100.00;99232.47;5113411;28;20198;-55
2023/09/10 00:11:07;;;;;;;0.10;0.10;;;;;;;19.44;100.00;99227.09;5113443;28;20182;-55
2023/09/10 00:13:54;;;;;;;0.10;0.10;;;;;;;19.47;100.00;99229.47;5113405;28;20201;-56
2023/09/10 00:16:41;;;;;;;0.10;0.10;;;;;;;19.43;100.00;99230.78;5113309;28;20198;-56
2023/09/10 00:19:28;;;;;;;0.20;0.20;;;;;;;19.23;100.00;99230.06;5112108;28;20189;-56
2023/09/10 00:22:16;;;;;;;0.20;0.20;;;;;;;19.24;100.00;99236.28;5112975;28;20221;-56
2023/09/10 00:25:03;;;;;;;0.10;0.10;;;;;;;19.27;100.00;99223.38;5113304;28;20198;-56
2023/09/10 00:27:50;;;;;;;0.20;0.20;;;;;;;18.99;100.00;99227.09;5113292;28;20190;-56
2023/09/10 00:30:37;;;;;;;0.10;0.10;;;;;;;18.92;100.00;99237.59;5113173;28;20202;-56
2023/09/10 00:33:24;;;;;;;0.20;0.20;;;;;;;19.18;100.00;99235.03;5113667;28;20194;-56
2023/09/10 00:36:11;;;;;;;0.20;0.20;;;;;;;19.10;100.00;99233.09;5116098;28;20205;-56
2023/09/10 00:39:00;;;;;;;0.20;0.20;;;;;;;18.94;100.00;99232.09;5116421;28;20672;-55
2023/09/10 00:41:46;;;;;;;0.10;0.10;;;;;;;18.73;100.00;99232.34;5116152;28;20217;-56
2023/09/10 00:44:33;;;;;;;0.20;0.20;;;;;;;18.48;100.00;99236.47;5117092;28;20263;-56
2023/09/10 00:47:21;;;;;;;0.10;0.10;;;;;;;18.71;100.00;99240.50;5117160;28;20194;-56
2023/09/10 00:50:10;;;;;;;0.17;0.17;;;;;;;18.62;100.00;99240.50;5114771;28;20190;-55
2023/09/10 00:53:00;;;;;;;0.10;0.10;;;;;;;18.72;100.00;99242.22;5116051;28;20669;-56
2023/09/10 00:55:49;;;;;;;0.10;0.10;;;;;;;18.73;100.00;99243.91;5116969;28;20194;-56
2023/09/10 00:58:36;;;;;;;0.20;0.20;;;;;;;18.71;100.00;99235.13;5116917;28;20236;-56
2023/09/10 01:01:25;;;;;;;0.20;0.20;;;;;;;18.69;100.00;99237.13;5116702;28;20218;-56
2023/09/10 01:04:17;;;;;;;0.20;0.20;;;;;;;18.99;100.00;99246.72;5115345;28;20708;-56
2023/09/10 01:07:04;;;;;;;0.20;0.20;;;;;;;18.67;100.00;99228.38;5115842;28;20214;-56
2023/09/10 01:09:51;;;;;;;0.10;0.10;;;;;;;18.59;100.00;99239.81;5116491;28;20557;-56
2023/09/10 01:12:50;;;;;;;0.10;0.10;;;;;;;18.61;100.00;99228.94;5115352;28;20213;-56
2023/09/10 01:15:43;;;;;;;0.10;0.10;;;;;;;18.74;100.00;99237.53;5116736;28;20198;-56
2023/09/10 01:18:35;;;;;;;0.20;0.20;;;;;;;18.82;100.00;99240.34;5116521;28;20189;-56
2023/09/10 01:21:40;;;;;;;0.10;0.10;;;;;;;18.77;100.00;99239.09;5114112;28;20195;-56
2023/09/10 01:24:39;;;;;;;0.10;0.10;;;;;;;18.78;100.00;99244.28;5116413;28;20190;-55
2023/09/10 01:27:27;;;;;;;0.10;0.10;;;;;;;18.49;100.00;99246.22;5116409;28;20270;-56
2023/09/10 01:30:14;;;;;;;0.10;0.10;;;;;;;18.45;100.00;99243.00;5115377;28;20205;-56
2023/09/10 01:33:08;;;;;;;0.20;0.20;;;;;;;18.52;100.00;99248.59;5114767;28;20284;-56
2023/09/10 01:36:02;;;;;;;0.10;0.10;;;;;;;18.55;100.00;99249.16;5114883;28;20672;-57
2023/09/10 01:38:57;;;;;;;0.10;0.10;;;;;;;18.70;100.00;99249.56;5116060;28;20205;-56
2023/09/10 01:41:47;;;;;;;0.20;0.20;;;;;;;18.60;100.00;99246.88;5114988;28;20213;-56
2023/09/10 01:44:36;;;;;;;0.20;0.20;;;;;;;18.62;100.00;99244.03;5115382;28;20187;-54
2023/09/10 01:47:23;;;;;;;0.20;0.20;;;;;;;18.48;100.00;99241.84;5115819;28;20202;-53
2023/09/10 01:50:11;;;;;;;0.10;0.10;;;;;;;18.40;100.00;99239.03;5114470;28;20709;-54
2023/09/10 01:52:58;;;;;;;0.10;0.10;;;;;;;18.22;100.00;99242.47;5114710;28;20222;-54
2023/09/10 01:55:46;;;;;;;0.10;0.10;;;;;;;18.29;100.00;99242.75;5114596;28;20191;-54
2023/09/10 01:58:34;;;;;;;0.10;0.10;;;;;;;18.36;100.00;99246.56;5115834;28;20202;-54
2023/09/10 02:01:21;;;;;;;0.10;0.10;;;;;;;18.30;100.00;99250.66;5114737;28;20236;-54
2023/09/10 02:04:07;;;;;;;0.10;0.10;;;;;;;18.28;100.00;99243.75;5115508;28;20262;-54
2023/09/10 02:06:54;;;;;;;0.20;0.20;;;;;;;18.29;100.00;99243.59;5074989;28;20227;-53
2023/09/10 02:09:41;;;;;;;0.20;0.20;;;;;;;18.14;100.00;99246.84;5075034;28;20195;-53
2023/09/10 02:12:28;;;;;;;0.10;0.10;;;;;;;18.05;100.00;99237.88;5073565;28;20207;-54
2023/09/10 02:15:18;;;;;;;0.20;0.20;;;;;;;18.13;100.00;99231.78;5075054;28;20769;-53
2023/09/10 02:18:05;;;;;;;0.20;0.20;;;;;;;18.22;100.00;99234.44;5073772;28;20203;-54
2023/09/10 02:20:52;;;;;;;0.10;0.10;;;;;;;18.23;100.00;99235.28;5073197;28;20781;-54
2023/09/10 02:23:42;;;;;;;0.10;0.10;;;;;;;18.20;100.00;99225.69;5074739;28;20188;-53
2023/09/10 02:26:29;;;;;;;0.20;0.20;;;;;;;18.17;100.00;99230.50;5073754;28;20211;-53
2023/09/10 02:29:16;;;;;;;0.10;0.10;;;;;;;18.20;100.00;99236.41;5074395;28;20207;-54
2023/09/10 02:32:04;;;;;;;0.20;0.20;;;;;;;18.13;100.00;99247.84;5074354;28;20215;-54
2023/09/10 02:34:51;;;;;;;0.10;0.10;;;;;;;18.05;100.00;99245.91;5073133;28;20678;-53
2023/09/10 02:37:38;;;;;;;0.10;0.10;;;;;;;17.95;100.00;99245.94;5073284;28;20315;-53
2023/09/10 02:40:25;;;;;;;0.10;0.10;;;;;;;18.18;100.00;99249.13;5074489;28;20199;-53
2023/09/10 02:43:12;;;;;;;0.10;0.10;;;;;;;18.02;100.00;99248.88;5074417;28;20203;-54
2023/09/10 02:45:59;;;;;;;0.10;0.10;;;;;;;18.00;100.00;99257.06;5072992;28;20198;-53
2023/09/10 02:48:47;;;;;;;0.10;0.10;;;;;;;18.16;100.00;99255.63;5074180;28;20203;-54
2023/09/10 02:51:34;;;;;;;0.20;0.20;;;;;;;18.08;100.00;99248.31;5073165;28;20204;-54
2023/09/10 02:54:21;;;;;;;0.20;0.20;;;;;;;18.02;100.00;99252.38;5073965;28;20192;-54
2023/09/10 02:57:08;;;;;;;0.10;0.10;;;;;;;18.05;100.00;99253.97;5071996;28;20191;-54
2023/09/10 02:59:55;;;;;;;0.10;0.10;;;;;;;17.90;100.00;99261.56;5073919;28;20207;-54
2023/09/10 03:02:42;;;;;;;0.10;0.10;;;;;;;17.89;100.00;99259.88;5072769;28;20212;-54
2023/09/10 03:05:33;;;;;;;0.17;0.17;;;;;;;17.90;100.00;99250.00;5094809;28;20229;-54
2023/09/10 03:08:20;;;;;;;0.20;0.20;;;;;;;17.78;100.00;99259.19;5113409;28;20710;-54
2023/09/10 03:11:07;;;;;;;0.10;0.10;;;;;;;17.68;100.00;99251.13;5114247;28;20714;-54
2023/09/10 03:13:54;;;;;;;0.10;0.10;;;;;;;17.50;100.00;99253.66;5114058;28;20218;-54
2023/09/10 03:16:42;;;;;;;0.20;0.20;;;;;;;17.36;100.00;99259.41;5113259;28;20197;-54
2023/09/10 03:19:31;;;;;;;0.10;0.10;;;;;;;17.40;100.00;99255.47;5111939;28;20316;-54
2023/09/10 03:22:19;;;;;;;0.20;0.20;;;;;;;17.39;100.00;99251.94;5114017;28;20689;-54
2023/09/10 03:25:06;;;;;;;0.10;0.10;;;;;;;17.45;100.00;99256.72;5112955;28;20723;-54
2023/09/10 03:27:53;;;;;;;0.20;0.20;;;;;;;17.38;100.00;99250.25;5113205;28;20201;-54
2023/09/10 03:30:40;;;;;;;0.10;0.10;;;;;;;17.45;100.00;99254.06;5112987;28;20546;-54
2023/09/10 03:33:27;;;;;;;0.20;0.20;;;;;;;17.43;100.00;99250.66;5112850;28;20214;-53
2023/09/10 03:36:14;;;;;;;0.20;0.20;;;;;;;17.48;100.00;99249.44;5111612;28;20194;-54
2023/09/10 03:39:03;;;;;;;0.10;0.10;;;;;;;17.39;100.00;99267.19;5112935;28;20264;-54
2023/09/10 03:41:51;;;;;;;0.10;0.10;;;;;;;17.33;100.00;99267.72;5113812;28;20270;-54
2023/09/10 03:44:38;;;;;;;0.10;0.10;;;;;;;17.18;100.00;99264.59;5112858;28;20198;-54
2023/09/10 03:47:28;;;;;;;0.10;0.10;;;;;;;17.44;100.00;99257.72;5112708;28;20291;-54
2023/09/10 03:50:15;;;;;;;0.10;0.10;;;;;;;17.49;100.00;99268.03;5111451;28;20198;-54
2023/09/10 03:53:03;;;;;;;0.20;0.20;;;;;;;17.47;100.00;99267.34;5113535;28;20260;-54
2023/09/10 03:55:51;;;;;;;0.10;0.10;;;;;;;17.53;100.00;99276.63;5113698;28;20194;-54
2023/09/10 03:58:38;;;;;;;0.10;0.10;;;;;;;17.53;100.00;99274.78;5112593;28;20673;-54
2023/09/10 04:01:25;;;;;;;0.20;0.20;;;;;;;17.58;100.00;99267.19;5112697;28;20197;-54
2023/09/10 04:04:12;;;;;;;0.10;0.10;;;;;;;17.59;100.00;99276.06;5111057;28;20194;-54
2023/09/10 04:06:59;;;;;;;0.10;0.10;;;;;;;17.66;100.00;99262.00;5112535;28;20247;-54
2023/09/10 04:09:46;;;;;;;0.10;0.10;;;;;;;17.52;100.00;99269.56;5112372;28;20275;-54
2023/09/10 04:12:35;;;;;;;0.10;0.10;;;;;;;17.57;100.00;99265.50;5113407;28;20186;-54
2023/09/10 04:15:21;;;;;;;0.10;0.10;;;;;;;17.52;100.00;99265.06;5113482;28;20224;-54
2023/09/10 04:18:08;;;;;;;0.20;0.20;;;;;;;17.71;100.00;99265.09;5113345;28;20308;-54
2023/09/10 04:20:55;;;;;;;0.10;0.10;;;;;;;17.22;100.00;99271.38;5112011;28;20260;-54
2023/09/10 04:23:42;;;;;;;0.10;0.10;;;;;;;17.01;100.00;99282.16;5112281;28;20186;-54
2023/09/10 04:26:29;;;;;;;0.20;0.20;;;;;;;17.06;100.00;99281.72;5112311;28;20194;-53
2023/09/10 04:29:17;;;;;;;0.10;0.10;;;;;;;16.94;100.00;99280.16;5112169;28;20194;-53
2023/09/10 04:32:05;;;;;;;0.10;0.10;;;;;;;16.98;100.00;99284.25;5112353;28;20260;-54
2023/09/10 04:34:52;;;;;;;0.20;0.20;;;;;;;17.01;100.00;99284.00;5111004;28;20301;-53
2023/09/10 04:37:38;;;;;;;0.10;0.10;;;;;;;16.80;100.00;99289.41;5113193;28;20248;-54
2023/09/10 04:40:25;;;;;;;0.20;0.20;;;;;;;16.99;100.00;99285.97;5112023;28;20189;-54
2023/09/10 04:43:12;;;;;;;0.10;0.10;;;;;;;17.17;100.00;99293.16;5112122;28;20224;-54
2023/09/10 04:46:01;;;;;;;0.10;0.10;;;;;;;17.57;100.00;99294.13;5113117;28;20198;-53
2023/09/10 04:48:48;;;;;;;0.20;0.20;;;;;;;17.56;100.00;99289.72;5111983;28;20199;-53
2023/09/10 04:51:35;;;;;;;0.20;0.20;;;;;;;17.50;100.00;99285.78;5112033;28;20348;-53
2023/09/10 04:54:22;;;;;;;0.20;0.20;;;;;;;17.15;100.00;99294.31;5112817;28;20218;-53
2023/09/10 04:57:09;;;;;;;0.20;0.20;;;;;;;17.02;100.00;99288.34;5112825;28;20202;-54
2023/09/10 04:59:56;;;;;;;0.20;0.20;;;;;;;17.10;100.00;99289.38;5112031;28;20198;-54
2023/09/10 05:02:45;;;;;;;0.20;0.20;;;;;;;17.06;100.00;99287.09;5111906;28;20197;-54
2023/09/10 05:05:37;;;;;;;0.20;0.20;;;;;;;17.09;100.00;99282.31;5110115;28;20765;-53
2023/09/10 05:08:23;;;;;;;0.10;0.10;;;;;;;17.27;100.00;99292.34;5111836;28;20194;-54
2023/09/10 05:11:10;;;;;;;0.20;0.20;;;;;;;17.42;100.00;99289.16;5111877;28;20269;-54
2023/09/10 05:13:57;;;;;;;0.10;0.10;;;;;;;17.51;100.00;99283.97;5111253;28;20217;-54
2023/09/10 05:16:49;;;;;;;0.10;0.10;;;;;;;17.55;100.00;99294.25;5111915;28;20275;-54
2023/09/10 05:19:37;;;;;;;0.10;0.10;;;;;;;17.19;100.00;99292.22;5111625;28;20201;-54
2023/09/10 05:22:26;;;;;;;0.20;0.20;;;;;;;17.21;100.00;99285.72;5115311;28;20581;-54
2023/09/10 05:25:13;;;;;;;0.10;0.10;;;;;;;17.03;100.00;99292.72;5115498;28;20198;-53
2023/09/10 05:27:59;;;;;;;0.10;0.10;;;;;;;17.45;100.00;99294.22;5115505;28;20205;-53
2023/09/10 05:30:46;;;;;;;0.13;0.13;;;;;;;17.46;100.00;99292.38;5116338;28;20707;-54
2023/09/10 05:33:34;;;;;;;0.20;0.20;;;;;;;17.46;100.00;99297.75;5116055;28;20312;-53
2023/09/10 05:36:23;;;;;;;0.10;0.10;;;;;;;17.44;100.00;99299.72;5113538;28;20259;-54
2023/09/10 05:39:09;;;;;;;0.20;0.20;;;;;;;17.37;100.00;99303.94;5116151;28;20692;-54
2023/09/10 05:41:56;;;;;;;0.10;0.10;;;;;;;17.61;100.00;99300.88;5115214;28;20260;-54
2023/09/10 05:44:43;;;;;;;0.10;0.10;;;;;;;17.51;100.00;99313.41;5114962;28;20237;-54
2023/09/10 05:47:30;;;;;;;0.10;0.10;;;;;;;17.41;100.00;99313.41;5114177;28;20198;-54
2023/09/10 05:50:17;;;;;;;0.20;0.20;;;;;;;17.53;100.00;99317.66;5114555;28;20189;-54
2023/09/10 05:53:06;;;;;;;0.17;0.17;;;;;;;17.80;100.00;99321.53;5115907;28;20243;-54
2023/09/10 05:55:53;;;;;;;0.10;0.10;;;;;;;17.89;100.00;99323.38;5114807;28;20236;-54
2023/09/10 05:58:39;;;;;;;0.10;0.10;;;;;;;17.80;100.00;99319.69;5115807;28;20189;-54
2023/09/10 06:01:27;;;;;;;0.10;0.10;;;;;;;17.84;100.00;99329.13;5114806;28;20259;-54
2023/09/10 06:04:15;;;;;;;0.10;0.10;;;;;;;17.83;100.00;99316.72;5113137;28;20313;-54
2023/09/10 06:07:03;;;;;;;0.20;0.20;;;;;;;17.77;100.00;99324.50;5114578;28;20284;-54
2023/09/10 06:09:52;;;;;;;0.10;0.10;;;;;;;17.81;100.00;99318.69;5114690;28;20224;-54
2023/09/10 06:12:40;;;;;;;0.20;0.20;;;;;;;18.03;100.00;99321.09;5115478;28;20277;-54
2023/09/10 06:15:28;;;;;;;0.10;0.10;;;;;;;18.06;100.00;99324.50;5114171;28;20221;-54
2023/09/10 06:18:15;;;;;;;0.20;0.20;;;;;;;18.02;100.00;99319.41;5115074;28;20661;-54
2023/09/10 06:21:02;;;;;;;0.10;0.10;;;;;;;18.08;100.00;99318.00;5114076;28;20194;-54
2023/09/10 06:23:49;;;;;;;0.10;0.10;;;;;;;18.27;100.00;99326.03;5115167;28;20190;-54
2023/09/10 06:26:38;;;;;;;0.20;0.20;;;;;;;18.53;100.00;99331.63;5114250;28;20194;-54
2023/09/10 06:29:25;;;;;;;0.10;0.10;;;;;;;18.49;100.00;99324.00;5114203;28;20248;-54
2023/09/10 06:32:12;;;;;;;0.10;0.10;;;;;;;18.71;100.00;99318.31;5113845;28;20198;-54
2023/09/10 06:35:00;;;;;;;0.20;0.20;;;;;;;18.91;100.00;99323.63;5112558;28;20226;-53
2023/09/10 06:37:48;;;;;;;0.10;0.10;;;;;;;18.80;100.00;99325.50;5114035;28;20202;-54
2023/09/10 06:40:36;;;;;;;0.10;0.10;;;;;;;18.87;100.00;99323.94;5114060;28;20198;-54
2023/09/10 06:43:25;;;;;;;0.10;0.10;;;;;;;18.95;100.00;99336.63;5113866;28;20248;-54
2023/09/10 06:46:25;;;;;;;0.10;0.10;;;;;;;19.04;100.00;99342.94;5113904;28;20194;-54
2023/09/10 06:49:12;;;;;;;0.10;0.10;;;;;;;19.21;100.00;99333.28;5113529;28;20269;-54
2023/09/10 06:51:58;;;;;;;0.10;0.10;;;;;;;19.42;100.00;99332.03;5114376;28;20292;-54
2023/09/10 06:54:45;;;;;;;0.20;0.20;;;;;;;19.66;100.00;99336.84;5114488;28;20283;-54
2023/09/10 06:57:32;;;;;;;0.10;0.10;;;;;;;19.83;100.00;99331.66;5114746;28;20271;-54
2023/09/10 07:00:21;;;;;;;0.10;0.10;;;;;;;19.99;100.00;99332.66;5114393;28;20190;-54
2023/09/10 07:03:08;;;;;;;0.10;0.10;;;;;;;19.96;100.00;99332.09;5114535;28;20198;-54
2023/09/10 07:05:55;;;;;;;0.20;0.20;;;;;;;20.15;100.00;99334.63;5112880;28;20711;-54
2023/09/10 07:08:42;;;;;;;0.10;0.10;;;;;;;20.39;100.00;99330.47;5114248;28;20260;-55
2023/09/10 07:11:29;;;;;;;0.10;0.10;;;;;;;20.51;100.00;99330.06;5114332;28;20185;-55
2023/09/10 07:14:16;;;;;;;0.10;0.10;;;;;;;20.74;100.00;99326.84;5114334;28;20252;-55
2023/09/10 07:17:06;;;;;;;0.17;0.17;;;;;;;20.79;100.00;99322.69;5114165;28;20189;-55
2023/09/10 07:19:53;;;;;;;0.20;0.20;;;;;;;21.10;100.00;99330.25;5112977;28;20202;-55
2023/09/10 07:22:40;;;;;;;0.10;0.10;;;;;;;21.29;100.00;99323.81;5114075;28;20198;-55
2023/09/10 07:25:27;;;;;;;0.10;0.10;;;;;;;21.45;100.00;99323.03;5113912;28;20300;-55
2023/09/10 07:28:15;;;;;;;0.17;0.17;;;;;;;21.67;100.00;99317.84;5114024;28;20190;-55
2023/09/10 07:31:03;;;;;;;0.10;0.10;;;;;;;21.75;100.00;99317.03;5113763;28;20228;-54
2023/09/10 07:33:51;;;;;;;0.10;0.10;;;;;;;21.81;100.00;99315.50;5113612;28;20252;-55
2023/09/10 07:36:38;;;;;;;0.10;0.10;;;;;;;22.04;100.00;99313.88;5113902;28;20206;-55
2023/09/10 07:39:29;;;;;;;0.10;0.10;;;;;;;22.27;100.00;99319.47;5113908;28;20194;-55
2023/09/10 07:42:16;;;;;;;0.10;0.10;;;;;;;22.23;100.00;99318.13;5113535;28;20202;-55
2023/09/10 07:45:04;;;;;;;0.10;0.10;;;;;;;22.23;100.00;99318.13;5113768;28;20273;-55
2023/09/10 07:47:50;;;;;;;0.10;0.10;;;;;;;22.78;100.00;99318.25;5112795;28;20312;-55
2023/09/10 07:50:39;;;;;;;0.10;0.10;;;;;;;22.85;100.00;99316.53;5112437;28;20244;-55
2023/09/10 07:53:26;;;;;;;0.10;0.10;;;;;;;23.04;100.00;99323.41;5113713;28;20294;-55
2023/09/10 07:56:13;;;;;;;0.10;0.10;;;;;;;23.27;100.00;99318.09;5113327;28;20237;-55
2023/09/10 07:59:00;;;;;;;0.10;0.10;;;;;;;23.25;100.00;99309.31;5113378;28;20232;-55
2023/09/10 08:01:47;;;;;;;0.10;0.10;;;;;;;23.43;100.00;99318.00;5113579;28;20209;-55
2023/09/10 08:04:34;;;;;;;0.10;0.10;;;;;;;23.84;100.00;99325.09;5112088;28;20222;-55
2023/09/10 08:07:22;;;;;;;0.10;0.10;;;;;;;23.79;100.00;99331.03;5113416;28;20190;-55
2023/09/10 08:10:09;;;;;;;0.10;0.10;;;;;;;24.31;100.00;99326.75;5113410;28;20212;-55
2023/09/10 08:12:56;;;;;;;0.10;0.10;;;;;;;24.18;100.00;99330.09;5112198;28;20289;-55
2023/09/10 08:15:44;;;;;;;0.10;0.10;;;;;;;24.60;100.00;99328.72;5113156;28;20297;-55
2023/09/10 08:18:30;;;;;;;0.10;0.10;;;;;;;24.33;100.00;99314.78;5113435;28;20197;-55
2023/09/10 08:21:17;;;;;;;0.10;0.10;;;;;;;24.79;100.00;99328.19;5112137;28;20255;-55
2023/09/10 08:24:07;;;;;;;0.10;0.10;;;;;;;25.00;100.00;99319.38;5113329;28;20193;-55
2023/09/10 08:26:53;;;;;;;0.10;0.10;;;;;;;25.08;100.00;99327.41;5113331;28;20198;-55
2023/09/10 08:29:40;;;;;;;0.10;0.10;;;;;;;25.31;100.00;99320.03;5113182;28;20186;-55
2023/09/10 08:32:27;;;;;;;0.10;0.10;;;;;;;25.45;100.00;99329.16;5113330;28;20344;-55
2023/09/10 08:35:14;;;;;;;0.10;0.10;;;;;;;25.14;100.00;99325.81;5111892;28;20216;-55
2023/09/10 08:38:01;;;;;;;0.10;0.10;;;;;;;25.57;100.00;99314.06;5112773;28;20194;-55
2023/09/10 08:41:01;;;;;;;0.10;0.10;;;;;;;26.02;100.00;99317.50;5113203;28;20646;-55
2023/09/10 08:43:54;;;;;;;0.10;0.10;;;;;;;26.08;100.00;99316.75;5113107;28;20190;-55
2023/09/10 08:46:42;;;;;;;0.08;0.08;;;;;;;25.89;100.00;99312.81;5113065;28;20191;-55
2023/09/10 08:49:33;;;;;;;0.10;0.10;;;;;;;26.41;100.00;99306.19;5111806;28;20201;-55
2023/09/10 08:52:21;;;;;;;0.10;0.10;;;;;;;26.47;100.00;99310.88;5113137;28;20198;-55
2023/09/10 08:55:09;;;;;;;0.00;0.00;;;;;;;26.78;100.00;99312.34;5113812;28;20201;-55
2023/09/10 08:57:59;;;;;;;0.10;0.10;;;;;;;26.71;100.00;99312.28;5116964;28;20186;-55
2023/09/10 09:00:49;;;;;;;0.10;0.10;;;;;;;26.91;100.00;99320.56;5116848;28;20202;-55
2023/09/10 09:03:37;;;;;;;0.10;0.10;;;;;;;27.11;100.00;99312.56;5116724;28;20194;-56
2023/09/10 09:06:29;;;;;;;0.10;0.10;;;;;;;26.72;100.00;99315.84;5115760;28;20319;-55
2023/09/10 09:09:17;;;;;;;0.10;0.10;;;;;;;27.34;100.00;99310.38;5116937;28;20194;-56
2023/09/10 09:12:05;;;;;;;0.00;0.00;;;;;;;28.09;100.00;99308.56;5116720;28;20190;-56
2023/09/10 09:14:54;;;;;;;0.03;0.03;;;;;;;28.25;100.00;99310.00;5116517;28;20197;-56
2023/09/10 09:17:42;;;;;;;0.00;0.00;;;;;;;28.04;100.00;99308.31;5116405;28;20646;-56
2023/09/10 09:20:32;;;;;;;0.10;0.10;;;;;;;28.42;100.00;99303.16;5115409;28;20379;-55
2023/09/10 09:23:23;;;;;;;0.10;0.10;;;;;;;29.12;100.00;99303.47;5116457;28;20195;-55
2023/09/10 09:26:10;;;;;;;0.00;0.00;;;;;;;28.51;100.00;99299.16;5116324;28;20191;-55
2023/09/10 09:28:58;;;;;;;0.00;0.00;;;;;;;29.11;100.00;99299.06;5116398;28;20194;-55
2023/09/10 09:31:46;;;;;;;0.00;0.00;;;;;;;29.05;100.00;99298.06;5116316;28;20190;-55
2023/09/10 09:34:33;;;;;;;0.10;0.10;;;;;;;29.30;100.00;99305.53;5114948;28;20255;-55
2023/09/10 09:37:20;;;;;;;0.00;0.00;;;;;;;29.53;100.00;99302.28;5116317;28;20220;-55
2023/09/10 09:40:09;;;;;;;0.10;0.10;;;;;;;30.20;96.18;99293.50;5116235;28;20194;-55
2023/09/10 09:43:00;;;;;;;0.10;0.10;;;;;;;30.20;97.42;99295.41;5116039;28;20190;-55
2023/09/10 09:46:05;;;;;;;0.00;0.00;;;;;;;30.54;95.38;99288.63;5116326;28;20189;-56
2023/09/10 09:48:54;;;;;;;0.00;0.00;;;;;;;30.75;92.63;99287.38;5116122;28;20190;-55
2023/09/10 09:51:41;;;;;;;0.00;0.00;;;;;;;31.00;88.80;99282.72;5115934;28;20614;-55
2023/09/10 09:54:28;;;;;;;0.00;0.00;;;;;;;30.36;94.83;99281.19;5115940;28;20194;-55
2023/09/10 09:57:15;;;;;;;0.00;0.00;;;;;;;30.86;92.97;99278.44;5115700;28;20222;-55
2023/09/10 10:00:02;;;;;;;0.00;0.00;;;;;;;31.44;90.18;99271.66;5115803;28;20198;-56
2023/09/10 10:02:51;;;;;;;0.00;0.00;;;;;;;31.72;86.40;99266.44;5115581;28;20664;-56
2023/09/10 10:05:39;;;;;;;0.00;0.00;;;;;;;32.20;84.25;99276.50;5113742;28;20333;-56
2023/09/10 10:08:29;;;;;;;0.00;0.00;;;;;;;32.23;85.40;99273.25;5115656;28;20247;-55
2023/09/10 10:11:18;;;;;;;0.00;0.00;;;;;;;32.79;80.44;99274.63;5115650;28;20195;-55
2023/09/10 10:14:05;;;;;;;0.00;0.00;;;;;;;33.51;75.19;99266.91;5115567;28;20214;-55
2023/09/10 10:16:53;;;;;;;0.00;0.00;;;;;;;34.14;70.69;99260.38;5115302;28;20218;-55
2023/09/10 10:19:41;;;;;;;0.00;0.00;;;;;;;35.36;62.48;99263.31;5114325;28;20233;-55
2023/09/10 10:22:29;;;;;;;0.00;0.00;;;;;;;36.46;58.43;99255.63;5115428;28;20198;-56
2023/09/10 10:25:17;;;;;;;0.00;0.00;;;;;;;38.89;48.09;99251.88;5115271;28;20266;-56
2023/09/10 10:28:07;;;;;;;0.00;0.00;;;;;;;39.30;44.22;99249.84;5115159;28;20190;-56
2023/09/10 10:31:02;;;;;;;0.00;0.00;;;;;;;41.50;40.15;99246.78;5115185;28;20225;-56
2023/09/10 10:33:52;;;;;;;0.00;0.00;;;;;;;42.12;38.79;99247.56;5115097;28;20229;-56
2023/09/10 10:36:50;;;;;;;0.00;0.00;;;;;;;40.98;38.94;99244.94;5114859;28;20289;-56
2023/09/10 10:39:42;;;;;;;0.00;0.00;;;;;;;41.81;37.60;99241.66;5114911;28;20190;-56
2023/09/10 10:42:36;;;;;;;0.00;0.00;;;;;;;41.82;37.95;99236.91;5114832;28;20193;-56
2023/09/10 10:45:26;;;;;;;0.00;0.00;;;;;;;42.00;36.99;99234.09;5114953;28;20198;-57
2023/09/10 10:48:15;;;;;;;0.00;0.00;;;;;;;43.38;34.63;99228.78;5114477;28;20197;-57
2023/09/10 10:51:04;;;;;;;0.00;0.00;;;;;;;43.44;35.41;99221.13;5113491;28;20680;-56
2023/09/10 10:53:52;;;;;;;0.00;0.00;;;;;;;40.64;40.49;99222.81;5114640;28;20218;-56
2023/09/10 10:56:41;;;;;;;0.00;0.00;;;;;;;41.77;37.29;99229.44;5114704;28;20217;-56
2023/09/10 10:59:28;;;;;;;0.00;0.00;;;;;;;41.13;37.88;99222.53;5114813;28;20676;-57
2023/09/10 11:02:22;;;;;;;0.00;0.00;;;;;;;41.28;38.80;99224.28;5114473;28;20208;-56
2023/09/10 11:05:09;;;;;;;0.00;0.00;;;;;;;42.65;37.61;99224.09;5112737;28;20578;-57
2023/09/10 11:08:26;;;;;;;0.00;0.00;;;;;;;44.65;33.23;99217.28;5114517;28;20300;-56
2023/09/10 11:11:48;;;;;;;0.00;0.00;;;;;;;45.55;31.79;99220.50;5114414;28;20197;-57
2023/09/10 11:15:13;;;;;;;0.00;0.00;;;;;;;46.01;30.27;99213.44;5114236;28;20227;-57
2023/09/10 11:18:38;;;;;;;0.00;0.00;;;;;;;45.77;30.76;99218.75;5104005;28;20218;-56
2023/09/10 11:22:02;;;;;;;0.00;0.00;;;;;;;45.56;31.24;99212.97;5114216;28;20202;-56
2023/09/10 11:25:00;;;;;;;0.00;0.00;;;;;;;46.80;29.35;99206.50;5114152;28;20240;-56
2023/09/10 11:27:52;;;;;;;0.00;0.00;;;;;;;45.80;29.77;99204.91;5113988;28;20216;-57
2023/09/10 11:30:39;;;;;;;0.00;0.00;;;;;;;44.99;30.46;99199.03;5113997;28;20212;-57
2023/09/10 11:33:30;;;;;;;0.00;0.00;;;;;;;45.90;29.58;99198.97;5113929;28;20193;-57
2023/09/10 11:36:18;;;;;;;0.00;0.00;;;;;;;43.42;31.46;99199.09;5113002;28;20231;-57
2023/09/10 11:39:08;;;;;;;0.00;0.00;;;;;;;46.06;29.29;99193.72;5113431;28;20185;-56
2023/09/10 11:41:55;;;;;;;0.00;0.00;;;;;;;46.38;28.65;99191.47;5113946;28;20193;-56
2023/09/10 11:44:44;;;;;;;0.00;0.00;;;;;;;45.91;29.41;99183.81;5113795;28;20220;-57
2023/09/10 11:47:31;;;;;;;0.00;0.00;;;;;;;46.45;28.84;99189.00;5113589;28;20214;-57
2023/09/10 11:50:24;;;;;;;0.00;0.00;;;;;;;47.32;27.38;99183.81;5112289;28;20197;-57
2023/09/10 11:53:11;;;;;;;0.00;0.00;;;;;;;46.59;27.84;99188.78;5113343;28;20204;-57
2023/09/10 11:56:00;;;;;;;0.00;0.00;;;;;;;47.31;26.19;99184.97;5113312;28;20198;-57
2023/09/10 11:58:49;;;;;;;0.00;0.00;;;;;;;45.12;27.74;99184.06;5113433;28;20193;-57
2023/09/10 12:01:37;;;;;;;0.00;0.00;;;;;;;45.59;27.27;99179.53;5113666;28;20452;-57
2023/09/10 12:04:30;;;;;;;0.00;0.00;;;;;;;45.95;26.85;99181.19;5112177;28;20226;-57
2023/09/10 12:07:17;;;;;;;0.00;0.00;;;;;;;46.78;25.57;99178.78;5113168;28;20232;-57
2023/09/10 12:10:04;;;;;;;0.00;0.00;;;;;;;44.30;28.38;99177.16;5113396;28;20201;-57
2023/09/10 12:12:51;;;;;;;0.00;0.00;;;;;;;46.20;26.92;99179.50;5113397;28;20208;-57
2023/09/10 12:15:38;;;;;;;0.00;0.00;;;;;;;46.29;27.19;99179.47;5113309;28;20274;-57
2023/09/10 12:18:27;;;;;;;0.00;0.00;;;;;;;46.73;26.24;99175.38;5113333;28;20189;-57
2023/09/10 12:21:15;;;;;;;0.00;0.00;;;;;;;46.94;25.58;99172.63;5111977;28;20192;-57
2023/09/10 12:24:02;;;;;;;0.00;0.00;;;;;;;48.51;24.65;99162.50;5113410;28;20194;-57
2023/09/10 12:26:49;;;;;;;0.00;0.00;;;;;;;46.12;26.68;99166.31;5113292;28;20722;-57
2023/09/10 12:29:36;;;;;;;0.00;0.00;;;;;;;47.19;25.47;99154.00;5115076;28;20267;-57
2023/09/10 12:32:24;;;;;;;0.00;0.00;;;;;;;46.68;25.14;99159.53;5117652;28;20194;-57
2023/09/10 12:35:13;;;;;;;0.00;0.00;;;;;;;48.25;22.96;99156.34;5116085;28;20303;-57
2023/09/10 12:38:01;;;;;;;0.00;0.00;;;;;;;50.36;21.63;99153.22;5117388;28;20189;-57
2023/09/10 12:40:50;;;;;;;0.00;0.00;;;;;;;50.14;21.19;99154.69;5117245;28;20260;-57
2023/09/10 12:43:37;;;;;;;0.00;0.00;;;;;;;49.84;21.20;99162.69;5117207;28;20197;-57
2023/09/10 12:46:24;;;;;;;0.00;0.00;;;;;;;48.71;21.69;99160.78;5117251;28;20194;-57
2023/09/10 12:49:12;;;;;;;0.00;0.00;;;;;;;48.80;22.52;99161.47;5115750;28;20267;-57
2023/09/10 12:52:01;;;;;;;0.00;0.00;;;;;;;48.46;22.65;99157.13;5116726;28;20197;-57
2023/09/10 12:54:48;;;;;;;0.00;0.00;;;;;;;48.65;22.20;99156.59;5117017;28;20324;-57
2023/09/10 12:57:35;;;;;;;0.00;0.00;;;;;;;49.23;21.94;99155.25;5117044;28;20189;-57
2023/09/10 13:00:22;;;;;;;0.00;0.00;;;;;;;48.91;22.45;99144.94;5116781;28;20239;-57
2023/09/10 13:03:13;;;;;;;0.00;0.00;;;;;;;49.04;22.19;99149.44;5116864;28;20274;-57
2023/09/10 13:05:59;;;;;;;0.00;0.00;;;;;;;49.96;22.02;99142.09;5115250;28;20319;-57
2023/09/10 13:08:48;;;;;;;0.00;0.00;;;;;;;49.41;22.38;99127.63;5116495;28;20259;-57